createdAt,value
2022-08-22T00:01:56.858Z,62.11
2022-08-22T00:02:44.409Z,57.65
2022-08-22T00:03:11.562Z,59.76
2022-08-22T00:04:41.517Z,61.52
2022-08-22T00:07:35.168Z,61.84
2022-08-22T00:10:11.497Z,61.76
2022-08-22T00:13:03.085Z,62.51
2022-08-22T00:15:44.452Z,62.41
2022-08-22T00:18:29.845Z,62.93
2022-08-22T00:21:16.583Z,62.81
2022-08-22T00:24:10.731Z,63.36
2022-08-22T00:26:45.624Z,62.83
2022-08-22T00:29:55.189Z,63.05
2022-08-22T00:32:38.644Z,63.04
2022-08-22T00:35:12.892Z,63.68
2022-08-22T00:37:39.368Z,63.55
2022-08-22T00:40:31.048Z,62.99
2022-08-22T00:43:24.747Z,62.53
2022-08-22T00:46:09.379Z,62.95
2022-08-22T00:48:47.149Z,62.32
2022-08-22T00:51:31.390Z,62.78
2022-08-22T00:54:04.470Z,63.41
2022-08-22T00:57:01.554Z,63.89
2022-08-22T00:59:48.148Z,62.95
2022-08-22T01:02:34.624Z,62.50
2022-08-22T01:05:17.145Z,62.78
2022-08-22T01:08:02.870Z,62.98
2022-08-22T01:10:47.797Z,62.95
2022-08-22T01:13:20.641Z,63.23
2022-08-22T01:15:51.077Z,63.52
2022-08-22T01:18:40.962Z,63.66
2022-08-22T01:21:13.246Z,63.66
2022-08-22T01:24:00.997Z,64.39
2022-08-22T01:26:40.466Z,64.04
2022-08-22T01:29:36.771Z,64.24
2022-08-22T01:32:42.153Z,64.06
2022-08-22T01:35:29.478Z,64.33
2022-08-22T01:38:12.813Z,64.47
2022-08-22T01:41:10.521Z,64.23
2022-08-22T01:44:13.725Z,63.95
2022-08-22T01:47:05.994Z,64.08
2022-08-22T01:49:39.694Z,65.04
2022-08-22T01:52:19.753Z,64.69
2022-08-22T01:54:56.364Z,64.61
2022-08-22T01:57:24.257Z,64.96
2022-08-22T01:59:56.030Z,65.00
2022-08-22T02:02:41.325Z,64.68
2022-08-22T02:05:16.728Z,64.90
2022-08-22T02:08:15.530Z,64.77
2022-08-22T02:11:00.146Z,64.66
2022-08-22T02:13:48.409Z,64.84
2022-08-22T02:16:32.058Z,65.00
2022-08-22T02:19:16.667Z,65.13
2022-08-22T02:21:53.369Z,65.42
2022-08-22T02:24:44.945Z,65.28
2022-08-22T02:27:17.652Z,65.46
2022-08-22T02:29:57.844Z,65.69
2022-08-22T02:32:47.668Z,65.50
2022-08-22T02:35:39.811Z,65.78
2022-08-22T02:38:20.279Z,65.75
2022-08-22T02:41:05.746Z,65.85
2022-08-22T02:43:59.589Z,65.81
2022-08-22T02:46:47.508Z,66.23
2022-08-22T02:49:28.104Z,66.27
2022-08-22T02:52:14.760Z,67.25
2022-08-22T02:55:04.469Z,66.44
2022-08-22T02:57:42.269Z,67.17
2022-08-22T03:00:31.659Z,66.56
2022-08-22T03:02:59.394Z,66.53
2022-08-22T03:05:38.285Z,66.29
2022-08-22T03:08:12.977Z,66.38
2022-08-22T03:10:45.746Z,66.43
2022-08-22T03:13:24.376Z,66.91
2022-08-22T03:16:04.333Z,66.66
2022-08-22T03:18:44.755Z,66.52
2022-08-22T03:21:50.058Z,66.84
2022-08-22T03:24:33.327Z,67.00
2022-08-22T03:27:31.420Z,66.91
2022-08-22T03:30:28.508Z,66.75
2022-08-22T03:32:59.451Z,66.84
2022-08-22T03:35:34.512Z,66.84
2022-08-22T03:38:18.605Z,66.73
2022-08-22T03:41:02.628Z,67.40
2022-08-22T03:43:47.729Z,67.05
2022-08-22T03:46:23.497Z,66.94
2022-08-22T03:49:06.339Z,67.19
2022-08-22T03:51:51.397Z,67.59
2022-08-22T03:54:37.791Z,67.37
2022-08-22T03:57:07.467Z,67.34
2022-08-22T04:00:06.837Z,67.39
2022-08-22T04:02:51.950Z,67.18
2022-08-22T04:06:01.752Z,67.45
2022-08-22T04:08:51.858Z,67.50
2022-08-22T04:11:24.437Z,67.38
2022-08-22T04:14:48.896Z,67.87
2022-08-22T04:17:36.684Z,67.85
2022-08-22T04:20:40.337Z,68.31
2022-08-22T04:23:13.002Z,67.94
2022-08-22T04:25:50.797Z,67.95
2022-08-22T04:28:32.969Z,67.94
2022-08-22T04:31:12.161Z,67.84
2022-08-22T04:34:16.496Z,68.21
2022-08-22T04:36:48.213Z,68.38
2022-08-22T04:39:18.541Z,68.53
2022-08-22T04:41:46.718Z,68.71
2022-08-22T04:44:21.318Z,69.05
2022-08-22T04:47:10.217Z,69.30
2022-08-22T04:49:57.042Z,69.15
2022-08-22T04:52:35.854Z,69.00
2022-08-22T04:55:26.613Z,68.72
2022-08-22T04:58:13.606Z,68.22
2022-08-22T05:00:51.966Z,68.75
2022-08-22T05:03:22.102Z,69.08
2022-08-22T05:05:52.989Z,69.04
2022-08-22T05:08:25.277Z,68.91
2022-08-22T05:10:52.418Z,69.07
2022-08-22T05:13:30.928Z,68.95
2022-08-22T05:16:03.454Z,68.51
2022-08-22T05:18:38.547Z,68.70
2022-08-22T05:21:09.064Z,68.99
2022-08-22T05:23:43.070Z,68.90
2022-08-22T05:26:13.536Z,68.86
2022-08-22T05:28:53.261Z,69.21
2022-08-22T05:31:28.735Z,69.36
2022-08-22T05:34:02.578Z,69.52
2022-08-22T05:36:35.146Z,69.39
2022-08-22T05:39:10.637Z,69.85
2022-08-22T05:41:39.303Z,69.56
2022-08-22T05:44:17.364Z,69.58
2022-08-22T05:46:48.619Z,69.54
2022-08-22T05:49:47.546Z,69.27
2022-08-22T05:52:56.684Z,68.71
2022-08-22T05:55:37.283Z,69.10
2022-08-22T05:58:36.712Z,69.06
2022-08-22T06:01:37.944Z,69.38
2022-08-22T06:04:14.321Z,69.33
2022-08-22T06:06:55.170Z,69.27
2022-08-22T06:09:47.785Z,69.32
2022-08-22T06:12:21.706Z,69.64
2022-08-22T06:15:12.034Z,69.81
2022-08-22T06:17:49.399Z,70.18
2022-08-22T06:20:32.219Z,70.06
2022-08-22T06:23:02.396Z,69.99
2022-08-22T06:25:35.527Z,70.19
2022-08-22T06:28:07.936Z,70.15
2022-08-22T06:30:37.970Z,70.32
2022-08-22T06:33:12.844Z,70.12
2022-08-22T06:36:07.376Z,69.90
2022-08-22T06:39:02.424Z,69.43
2022-08-22T06:41:32.718Z,69.73
2022-08-22T06:44:01.749Z,69.12
2022-08-22T06:46:31.726Z,68.79
2022-08-22T06:49:00.366Z,68.65
2022-08-22T06:51:29.169Z,68.33
2022-08-22T06:54:01.330Z,68.36
2022-08-22T06:56:35.548Z,68.74
2022-08-22T06:59:09.312Z,67.96
2022-08-22T07:01:51.731Z,67.60
2022-08-22T07:04:23.915Z,66.99
2022-08-22T07:06:51.339Z,66.10
2022-08-22T07:09:38.360Z,65.21
2022-08-22T07:12:14.727Z,64.99
2022-08-22T07:14:44.322Z,64.80
2022-08-22T07:17:18.502Z,64.86
2022-08-22T07:20:24.077Z,65.01
2022-08-22T07:23:04.024Z,64.15
2022-08-22T07:25:32.271Z,63.36
2022-08-22T07:28:36.954Z,61.18
2022-08-22T07:31:46.588Z,61.19
2022-08-22T07:34:31.959Z,60.75
2022-08-22T07:37:05.698Z,60.22
2022-08-22T07:39:38.406Z,59.66
2022-08-22T07:42:28.543Z,58.43
2022-08-22T07:45:03.088Z,58.07
2022-08-22T07:47:49.732Z,56.87
2022-08-22T07:50:28.589Z,56.12
2022-08-22T07:53:01.931Z,55.80
2022-08-22T07:55:28.680Z,54.73
2022-08-22T07:58:04.095Z,54.13
2022-08-22T08:00:32.404Z,53.60
2022-08-22T08:03:04.596Z,53.13
2022-08-22T08:05:34.285Z,52.74
2022-08-22T08:08:08.808Z,52.64
2022-08-22T08:10:42.460Z,52.55
2022-08-22T08:13:19.305Z,50.85
2022-08-22T08:15:46.130Z,50.98
2022-08-22T08:18:19.302Z,51.01
2022-08-22T08:20:54.630Z,51.00
2022-08-22T08:23:23.672Z,50.53
2022-08-22T08:25:57.664Z,49.77
2022-08-22T08:28:37.699Z,49.68
2022-08-22T08:31:31.458Z,47.91
2022-08-22T08:34:05.187Z,47.38
2022-08-22T08:36:43.131Z,48.19
2022-08-22T08:39:21.323Z,47.14
2022-08-22T08:42:00.060Z,47.14
2022-08-22T08:44:46.793Z,46.52
2022-08-22T08:47:25.036Z,45.84
2022-08-22T08:50:07.984Z,46.13
2022-08-22T08:52:52.970Z,45.18
2022-08-22T08:55:24.951Z,43.41
2022-08-22T08:58:22.645Z,44.09
2022-08-22T09:01:00.660Z,43.17
2022-08-22T09:03:57.422Z,41.94
2022-08-22T09:06:42.365Z,42.93
2022-08-22T09:09:32.230Z,42.68
2022-08-22T09:12:07.565Z,43.62
2022-08-22T09:14:52.313Z,43.02
2022-08-22T09:17:27.966Z,43.15
2022-08-22T09:20:17.730Z,44.52
2022-08-22T09:23:34.913Z,44.64
2022-08-22T09:26:08.774Z,43.09
2022-08-22T09:28:57.958Z,43.70
2022-08-22T09:31:48.062Z,42.94
2022-08-22T09:34:42.718Z,42.67
2022-08-22T09:37:16.864Z,42.38
2022-08-22T09:43:14.047Z,42.52
2022-08-22T09:46:09.678Z,41.96
2022-08-22T09:48:39.493Z,41.28
2022-08-22T09:51:31.966Z,40.67
2022-08-22T09:54:20.726Z,40.59
2022-08-22T09:56:55.934Z,41.39
2022-08-22T09:59:45.775Z,39.17
2022-08-22T10:02:26.406Z,40.12
2022-08-22T10:05:40.675Z,39.58
2022-08-22T10:08:35.193Z,40.46
2022-08-22T10:11:28.874Z,40.44
2022-08-22T10:14:22.202Z,41.05
2022-08-22T10:17:09.202Z,40.94
2022-08-22T10:19:42.185Z,38.66
2022-08-22T10:22:39.304Z,39.62
2022-08-22T10:25:34.260Z,40.03
2022-08-22T10:28:15.915Z,39.54
2022-08-22T10:30:59.416Z,39.62
2022-08-22T10:33:33.230Z,39.65
2022-08-22T10:36:11.688Z,39.55
2022-08-22T10:38:46.927Z,39.01
2022-08-22T10:41:19.349Z,39.43
2022-08-22T10:44:16.522Z,40.04
2022-08-22T10:46:55.290Z,37.54
2022-08-22T10:49:51.317Z,37.29
2022-08-22T10:52:45.554Z,35.28
2022-08-22T10:55:24.512Z,37.25
2022-08-22T10:58:10.994Z,36.46
2022-08-22T11:01:00.490Z,33.89
2022-08-22T11:03:47.037Z,35.15
2022-08-22T11:06:22.078Z,34.10
2022-08-22T11:09:14.134Z,33.74
2022-08-22T11:11:54.197Z,33.81
2022-08-22T11:14:53.560Z,33.41
2022-08-22T11:17:35.688Z,33.78
2022-08-22T11:20:15.016Z,34.83
2022-08-22T11:23:12.508Z,34.78
2022-08-22T11:25:52.371Z,33.98
2022-08-22T11:28:33.348Z,35.65
2022-08-22T11:31:47.368Z,35.81
2022-08-22T11:34:55.818Z,34.77
2022-08-22T11:37:56.507Z,35.37
2022-08-22T11:40:42.736Z,35.17
2022-08-22T11:43:12.030Z,35.63
2022-08-22T11:45:51.863Z,34.41
2022-08-22T11:48:31.063Z,35.78
2022-08-22T11:51:00.655Z,35.30
2022-08-22T11:53:39.609Z,34.28
2022-08-22T11:56:12.850Z,33.62
2022-08-22T11:58:59.429Z,33.04
2022-08-22T12:01:55.341Z,33.16
2022-08-22T12:04:33.948Z,34.07
2022-08-22T12:07:22.167Z,31.56
2022-08-22T12:09:55.109Z,31.64
2022-08-22T12:12:24.691Z,31.71
2022-08-22T12:15:01.037Z,34.03
2022-08-22T12:18:21.751Z,32.06
2022-08-22T12:21:16.130Z,33.80
2022-08-22T12:23:50.427Z,32.86
2022-08-22T12:26:34.074Z,34.27
2022-08-22T12:29:20.392Z,32.99
2022-08-22T12:32:06.537Z,33.45
2022-08-22T12:34:48.758Z,35.82
2022-08-22T12:37:28.313Z,34.62
2022-08-22T12:40:21.039Z,34.58
2022-08-22T12:43:05.055Z,32.72
2022-08-22T12:45:56.762Z,33.98
2022-08-22T12:48:54.578Z,34.05
2022-08-22T12:51:24.521Z,34.93
2022-08-22T12:54:21.983Z,33.63
2022-08-22T12:57:01.720Z,33.37
2022-08-22T12:59:32.606Z,33.22
2022-08-22T13:02:15.178Z,34.11
2022-08-22T13:04:50.678Z,33.54
2022-08-22T13:07:34.586Z,33.22
2022-08-22T13:10:32.492Z,34.27
2022-08-22T13:13:00.458Z,33.19
2022-08-22T13:15:37.186Z,32.60
2022-08-22T13:18:30.631Z,32.09
2022-08-22T13:21:02.755Z,31.63
2022-08-22T13:23:42.036Z,30.49
2022-08-22T13:26:32.867Z,28.90
2022-08-22T13:29:26.940Z,28.24
2022-08-22T13:32:01.528Z,27.41
2022-08-22T13:34:49.021Z,24.11
2022-08-22T13:37:24.750Z,24.69
2022-08-22T13:39:58.820Z,24.30
2022-08-22T13:42:30.152Z,25.58
2022-08-22T13:45:02.522Z,26.45
2022-08-22T13:47:32.499Z,26.66
2022-08-22T13:50:11.238Z,27.25
2022-08-22T13:52:49.299Z,26.18
2022-08-22T13:55:27.621Z,26.96
2022-08-22T13:58:11.366Z,26.98
2022-08-22T14:01:25.220Z,24.62
2022-08-22T14:04:28.738Z,25.72
2022-08-22T14:07:29.955Z,25.87
2022-08-22T14:10:05.117Z,24.66
2022-08-22T14:12:50.921Z,25.92
2022-08-22T14:15:34.005Z,26.89
2022-08-22T14:18:31.608Z,27.16
2022-08-22T14:21:27.322Z,26.34
2022-08-22T14:23:59.398Z,26.47
2022-08-22T14:26:35.739Z,25.29
2022-08-22T14:29:07.778Z,25.20
2022-08-22T14:31:35.386Z,25.46
2022-08-22T14:34:10.556Z,26.53
2022-08-22T14:36:58.730Z,26.33
2022-08-22T14:39:42.889Z,27.10
2022-08-22T14:42:26.568Z,24.99
2022-08-22T14:44:53.131Z,23.40
2022-08-22T14:47:55.492Z,23.85
2022-08-22T14:50:43.733Z,22.79
2022-08-22T14:53:25.211Z,22.27
2022-08-22T14:56:04.418Z,22.20
2022-08-22T14:58:36.469Z,21.33
2022-08-22T15:01:16.749Z,21.35
2022-08-22T15:03:50.622Z,21.72
2022-08-22T15:06:35.855Z,21.07
2022-08-22T15:09:23.029Z,20.27
2022-08-22T15:11:49.663Z,21.06
2022-08-22T15:14:42.627Z,20.19
2022-08-22T15:17:10.846Z,20.24
2022-08-22T15:19:44.398Z,20.61
2022-08-22T15:22:19.507Z,21.12
2022-08-22T15:25:02.603Z,21.16
2022-08-22T15:27:32.507Z,19.95
2022-08-22T15:30:02.581Z,20.89
2022-08-22T15:32:32.491Z,20.91
2022-08-22T15:35:13.781Z,20.86
2022-08-22T15:38:28.170Z,21.45
2022-08-22T15:40:56.650Z,20.11
2022-08-22T15:43:28.885Z,19.27
2022-08-22T15:46:53.697Z,20.14
2022-08-22T15:49:20.166Z,20.28
2022-08-22T15:52:11.165Z,21.63
2022-08-22T15:54:46.881Z,22.01
2022-08-22T15:57:19.016Z,23.38
2022-08-22T15:59:53.670Z,24.13
2022-08-22T16:02:27.950Z,26.17
2022-08-22T16:05:10.370Z,26.71
2022-08-22T16:07:48.671Z,27.10
2022-08-22T16:10:24.358Z,26.69
2022-08-22T16:13:15.774Z,27.76
2022-08-22T16:15:52.646Z,27.67
2022-08-22T16:18:34.426Z,27.95
2022-08-22T16:21:03.825Z,27.82
2022-08-22T16:23:50.812Z,28.82
2022-08-22T16:26:24.306Z,29.17
2022-08-22T16:29:10.294Z,29.83
2022-08-22T16:31:48.530Z,30.65
2022-08-22T16:34:18.157Z,30.60
2022-08-22T16:36:44.857Z,32.36
2022-08-22T16:39:20.402Z,32.19
2022-08-22T16:41:48.417Z,32.82
2022-08-22T16:44:30.163Z,33.19
2022-08-22T16:47:19.295Z,33.69
2022-08-22T16:49:51.537Z,34.12
2022-08-22T16:52:26.826Z,34.30
2022-08-22T16:55:00.101Z,35.35
2022-08-22T16:57:29.422Z,36.09
2022-08-22T17:00:08.901Z,35.58
2022-08-22T17:03:00.152Z,34.88
2022-08-22T17:05:42.230Z,39.15
2022-08-22T17:08:32.240Z,40.18
2022-08-22T17:11:10.625Z,39.59
2022-08-22T17:14:07.920Z,40.28
2022-08-22T17:16:41.717Z,39.48
2022-08-22T17:19:20.917Z,39.92
2022-08-22T17:21:57.178Z,40.41
2022-08-22T17:24:46.114Z,39.15
2022-08-22T17:27:28.808Z,40.17
2022-08-22T17:30:11.717Z,41.63
2022-08-22T17:33:09.047Z,42.81
2022-08-22T17:35:44.306Z,42.96
2022-08-22T17:38:44.050Z,42.48
2022-08-22T17:41:22.084Z,41.75
2022-08-22T17:44:13.199Z,42.42
2022-08-22T17:46:55.214Z,42.61
2022-08-22T17:49:46.598Z,41.27
2022-08-22T17:52:22.212Z,42.39
2022-08-22T17:54:52.500Z,41.96
2022-08-22T17:57:47.066Z,42.66
2022-08-22T18:00:24.245Z,44.06
2022-08-22T18:02:57.974Z,45.05
2022-08-22T18:05:31.468Z,45.43
2022-08-22T18:08:37.389Z,44.65
2022-08-22T18:11:07.790Z,43.93
2022-08-22T18:14:04.974Z,42.56
2022-08-22T18:16:43.764Z,42.79
2022-08-22T18:19:10.216Z,45.11
2022-08-22T18:21:51.590Z,44.78
2022-08-22T18:24:33.225Z,45.09
2022-08-22T18:27:34.050Z,45.62
2022-08-22T18:30:13.908Z,46.10
2022-08-22T18:32:51.325Z,45.42
2022-08-22T18:35:53.872Z,45.10
2022-08-22T18:38:30.120Z,45.01
2022-08-22T18:41:26.035Z,46.59
2022-08-22T18:43:53.326Z,47.21
2022-08-22T18:46:38.038Z,46.59
2022-08-22T18:49:15.515Z,47.36
2022-08-22T18:51:43.039Z,47.47
2022-08-22T18:54:12.466Z,46.67
2022-08-22T18:57:06.973Z,46.84
2022-08-22T18:59:46.594Z,45.95
2022-08-22T19:03:00.955Z,45.90
2022-08-22T19:05:49.566Z,45.58
2022-08-22T19:08:49.310Z,46.87
2022-08-22T19:11:45.589Z,46.36
2022-08-22T19:14:30.657Z,47.31
2022-08-22T19:17:27.257Z,48.69
2022-08-22T19:20:20.218Z,49.07
2022-08-22T19:22:51.125Z,48.42
2022-08-22T19:25:27.460Z,48.09
2022-08-22T19:27:56.936Z,48.80
2022-08-22T19:30:45.002Z,48.29
2022-08-22T19:33:19.589Z,47.98
2022-08-22T19:35:54.107Z,48.29
2022-08-22T19:38:53.756Z,49.24
2022-08-22T19:41:39.449Z,50.39
2022-08-22T19:44:32.673Z,50.77
2022-08-22T19:47:08.614Z,51.73
2022-08-22T19:49:39.333Z,51.67
2022-08-22T19:52:24.028Z,52.33
2022-08-22T19:55:21.397Z,52.55
2022-08-22T19:58:33.193Z,52.84
2022-08-22T20:01:28.566Z,53.35
2022-08-22T20:04:36.814Z,53.83
2022-08-22T20:07:14.778Z,53.65
2022-08-22T20:10:08.387Z,53.72
2022-08-22T20:12:54.177Z,54.43
2022-08-22T20:15:23.901Z,54.07
2022-08-22T20:20:58.357Z,55.32
2022-08-22T20:23:30.031Z,55.22
2022-08-22T20:25:57.974Z,55.03
2022-08-22T20:28:34.433Z,55.48
2022-08-22T20:31:06.016Z,55.45
2022-08-22T20:33:36.876Z,55.87
2022-08-22T20:36:16.728Z,55.42
2022-08-22T20:39:01.672Z,55.35
2022-08-22T20:41:40.432Z,55.36
2022-08-22T20:44:24.154Z,55.24
2022-08-22T20:46:55.922Z,55.26
2022-08-22T20:49:30.208Z,56.12
2022-08-22T20:51:59.498Z,55.73
2022-08-22T20:54:29.798Z,56.11
2022-08-22T20:56:58.380Z,56.00
2022-08-22T20:59:38.271Z,56.07
2022-08-22T21:02:18.000Z,55.93
2022-08-22T21:04:50.860Z,55.95
2022-08-22T21:07:27.057Z,56.38
2022-08-22T21:10:16.739Z,56.36
2022-08-22T21:13:19.666Z,56.59
2022-08-22T21:15:56.901Z,56.95
2022-08-22T21:18:48.262Z,57.28
2022-08-22T21:21:27.301Z,57.36
2022-08-22T21:24:01.284Z,57.22
2022-08-22T21:26:39.190Z,57.09
2022-08-22T21:29:14.464Z,57.03
2022-08-22T21:32:04.264Z,57.23
2022-08-22T21:34:40.784Z,58.04
2022-08-22T21:37:08.887Z,58.56
2022-08-22T21:39:41.333Z,58.55
2022-08-22T21:42:21.796Z,59.01
2022-08-22T21:44:57.695Z,59.17
2022-08-22T21:47:30.599Z,59.34
2022-08-22T21:50:18.589Z,59.59
2022-08-22T21:53:12.092Z,60.03
2022-08-22T21:55:47.994Z,59.71
2022-08-22T21:58:35.705Z,59.03
2022-08-22T22:01:30.489Z,59.62
2022-08-22T22:03:59.336Z,59.45
2022-08-22T22:06:26.447Z,59.48
2022-08-22T22:08:52.963Z,59.50
2022-08-22T22:11:19.673Z,59.73
2022-08-22T22:13:46.478Z,59.94
2022-08-22T22:16:13.410Z,60.23
2022-08-22T22:18:40.851Z,60.26
2022-08-22T22:21:08.471Z,60.48
2022-08-22T22:23:38.202Z,60.34
2022-08-22T22:26:05.799Z,60.00
2022-08-22T22:28:39.310Z,60.06
2022-08-22T22:31:06.914Z,60.00
2022-08-22T22:33:37.148Z,60.50
2022-08-22T22:36:10.584Z,60.52
2022-08-22T22:38:38.979Z,60.82
2022-08-22T22:41:05.664Z,60.64
2022-08-22T22:43:32.405Z,61.25
2022-08-22T22:45:59.236Z,60.99
2022-08-22T22:48:25.797Z,61.36
2022-08-22T22:50:53.411Z,61.31
2022-08-22T22:53:21.521Z,61.56
2022-08-22T22:56:00.690Z,61.49
2022-08-22T22:58:28.576Z,61.78
2022-08-22T23:00:56.058Z,61.59
2022-08-22T23:03:23.050Z,61.99
2022-08-22T23:05:49.608Z,62.28
2022-08-22T23:08:16.158Z,61.83
2022-08-22T23:10:42.721Z,62.03
2022-08-22T23:13:09.381Z,61.96
2022-08-22T23:15:36.931Z,62.06
2022-08-22T23:18:03.521Z,62.27
2022-08-22T23:20:30.099Z,62.21
2022-08-22T23:22:56.775Z,62.20
2022-08-22T23:25:23.274Z,62.44
2022-08-22T23:27:52.368Z,62.27
2022-08-22T23:30:19.646Z,62.37
2022-08-22T23:32:46.194Z,62.59
2022-08-22T23:35:12.718Z,62.58
2022-08-22T23:37:39.358Z,62.81
2022-08-22T23:40:09.606Z,63.18
2022-08-22T23:42:36.329Z,62.89
2022-08-22T23:45:03.624Z,63.33
2022-08-22T23:47:30.159Z,63.85
2022-08-22T23:49:56.685Z,63.70
2022-08-22T23:52:23.194Z,63.37
2022-08-22T23:54:54.334Z,63.03
2022-08-22T23:57:27.401Z,63.30
2022-08-22T23:59:57.594Z,63.23
